Aérodrome :
LOGIN :

S'inscrire | Disclaimer

   EN    FR    IT 

 










Légende :    VFR   VFR Marginal   IFR   IFR Intensif   IFR Très Intensif
Visi : 
Plafond : 
>= 8 km
>= 3000ft
5 à 8 km
1000 à 3000 ft
1500m à 5 km
500 à 1000 ft
800 à 1500m
200 à 500 ft
< 800m
< 200 ft
Symboles :   Orages  Brouillard  Fortes neiges  Fortes précipitations  Vent > 20 kt
SIGMETs :   Divers  Orages  Givrage  Turbulence  Onde Orograph.  Cendres Volcan.







- Altitude de l'aérodrome : 219 ft
- Code IATA : DNR
- Voir les cartes d'approche


LFRD - Dinard

DERNIER METAR :
  • 120730Z AUTO 16008KT 8000 -RA BKN007 OVC050 04/03 Q1019 TEMPO 3000 RA OVC004

METARs EXPIRÉS :
  • 120700Z AUTO 16008KT 7000 BKN008 OVC050 04/03 Q1019 TEMPO 3000 RA OVC004
  • 120630Z AUTO 15007KT 120V180 7000 BKN007 OVC050 04/03 Q1019 TEMPO 3000 RA OVC004
  • 120600Z AUTO 15006KT 7000 BKN007 OVC050 04/03 Q1019 TEMPO 3000 RA OVC004
  • 120530Z AUTO 14008KT 110V180 7000 -RADZ BKN007 BKN054 OVC066 04/03 Q1019 TEMPO 3000 RA OVC004
  • 120500Z AUTO 14009KT 110V170 9000 OVC007 04/03 Q1019 TEMPO 3000

TAF TAF LFRD
Valide du 12 à 06h jusqu'au 13 à 06h UTC


120500Z 1206/1306 14010KT 8000 BKN007
TEMPO 1206/1209 3000 RA OVC004
BECMG 1215/1217 BKN030
BECMG 1218/1220 CAVOK
TEMPO 1221/1306 13015G25KT
ATIS : +33 2 99 16 81 50
Pas de NOTAMs connus pour ce terrain.
2 SIGMETs publiés pour la FIR Brest (LFRR) :
 
Turbulence forte
LFRR SIGMET 2 VALID 120800/121200 LFPW
LFRR BREST FIR/UIR SEV TURB FCST WI N4915 W00545 - N4945 W00245 - N4700 W00015 - N4630 W00015 - N4630 W00130 - N4530 W00145 - N4915 W00545 FL150/330 STNR NC=
Turbulence forte
LFRR SIGMET 1 VALID 120400/120800 LFPW
LFRR BREST FIR/UIR SEV TURB FCST WI N4915 W00545 - N4945 W00400 - N4630 W00045 - N4630 W00130 - N4545 W00145 - N4915 W00545 FL160/280 MOV E 15KT NC=



MET'MAP, la Météo Aéronautique d'un coup d'oeil ! - Copyright ORBIFLY Décembre 2007 - Disclaimer

ORBIFLY MET'MAP TEAM :

Programmation & Développement : Alexandra Zaïnal
Conception & Développement : Baudouin d'Aumeries
Co-Programmation & Développement : Marc-Olivier Méhu
Soutien technique & logistique : Manuel Goepfert

Contact : metmap@orbifly.com




SOURCES & CREDITS :

   NOAA